createdAt,value
2019-01-19T00:03:57.619Z,3.33
2019-01-19T00:06:51.804Z,2.50
2019-01-19T00:12:38.913Z,3.70
2019-01-19T00:15:13.134Z,3.07
2019-01-19T00:17:50.036Z,2.43
2019-01-19T00:23:37.805Z,3.10
2019-01-19T00:26:28.784Z,2.53
2019-01-19T00:29:16.557Z,2.30
2019-01-19T00:31:51.713Z,2.00
2019-01-19T00:34:45.549Z,2.30
2019-01-19T00:37:20.784Z,2.53
2019-01-19T00:43:01.060Z,3.15
2019-01-19T00:45:54.080Z,2.20
2019-01-19T00:48:46.192Z,2.13
2019-01-19T00:51:27.180Z,2.23
2019-01-19T00:54:11.056Z,2.10
2019-01-19T00:56:51.888Z,2.23
2019-01-19T00:59:25.533Z,2.03
2019-01-19T01:05:14.803Z,3.50
2019-01-19T01:08:01.822Z,2.50
2019-01-19T01:10:45.104Z,2.33
2019-01-19T01:13:41.274Z,2.27
2019-01-19T01:19:12.338Z,4.00
2019-01-19T01:22:00.720Z,2.93
2019-01-19T01:24:42.702Z,2.37
2019-01-19T01:30:41.844Z,3.75
2019-01-19T01:33:16.404Z,2.20
2019-01-19T01:39:10.161Z,4.50
2019-01-19T01:44:57.249Z,4.30
2019-01-19T01:50:41.142Z,4.15
2019-01-19T01:53:20.820Z,2.60
2019-01-19T01:55:54.492Z,2.93
2019-01-19T01:58:28.192Z,2.40
2019-01-19T02:01:06.273Z,2.90
2019-01-19T02:03:54.917Z,3.30
2019-01-19T02:06:50.931Z,2.50
2019-01-19T02:09:33.835Z,2.57
2019-01-19T02:12:30.300Z,2.53
2019-01-19T02:21:32.141Z,4.90
2019-01-19T02:24:11.097Z,3.53
2019-01-19T02:29:56.782Z,5.93
2019-01-19T02:32:47.970Z,4.23
2019-01-19T02:35:27.721Z,3.73
2019-01-19T02:41:10.032Z,5.90
2019-01-19T02:43:50.992Z,4.40
2019-01-19T02:49:35.966Z,6.62
2019-01-19T02:55:24.930Z,6.55
2019-01-19T03:04:06.174Z,7.15
2019-01-19T03:16:27.607Z,7.65
2019-01-19T03:22:25.296Z,6.93
2019-01-19T03:25:09.227Z,4.93
2019-01-19T03:27:57.522Z,4.60
2019-01-19T03:33:37.511Z,7.40
2019-01-19T03:36:38.394Z,5.83
2019-01-19T03:39:14.758Z,5.67
2019-01-19T03:41:49.955Z,4.67
2019-01-19T03:44:30.706Z,4.47
2019-01-19T03:47:09.700Z,4.67
2019-01-19T03:52:59.903Z,7.10
2019-01-19T03:55:57.397Z,5.10
2019-01-19T04:01:50.505Z,7.95
2019-01-19T04:04:42.494Z,4.97
2019-01-19T04:10:31.712Z,6.85
2019-01-19T04:13:06.169Z,5.13
2019-01-19T04:16:10.323Z,4.07
2019-01-19T04:18:57.336Z,4.67
2019-01-19T04:21:43.110Z,3.73
2019-01-19T04:25:07.138Z,4.40
2019-01-19T04:27:40.847Z,3.50
2019-01-19T04:30:14.694Z,3.67
2019-01-19T04:32:48.461Z,4.00
2019-01-19T04:35:23.090Z,4.23
2019-01-19T04:37:56.781Z,4.07
2019-01-19T04:40:30.597Z,4.00
2019-01-19T04:43:04.299Z,3.83
2019-01-19T04:45:38.102Z,3.83
2019-01-19T04:48:11.765Z,3.83
2019-01-19T04:50:45.529Z,3.83
2019-01-19T04:53:19.247Z,3.90
2019-01-19T04:55:53.033Z,4.07
2019-01-19T04:58:27.642Z,4.10
2019-01-19T05:01:01.352Z,3.80
2019-01-19T05:03:35.082Z,4.00
2019-01-19T05:06:12.559Z,3.37
2019-01-19T05:08:42.457Z,3.43
2019-01-19T05:11:16.965Z,4.13
2019-01-19T05:13:50.738Z,3.63
2019-01-19T05:16:24.548Z,3.93
2019-01-19T05:18:59.228Z,3.47
2019-01-19T05:21:32.912Z,3.77
2019-01-19T05:24:06.768Z,3.47
2019-01-19T05:26:41.461Z,3.33
2019-01-19T05:29:15.275Z,3.40
2019-01-19T05:31:49.130Z,3.63
2019-01-19T05:34:22.889Z,3.63
2019-01-19T05:36:56.602Z,3.33
2019-01-19T05:39:30.272Z,3.70
2019-01-19T05:42:03.981Z,3.57
2019-01-19T05:44:37.805Z,4.03
2019-01-19T05:47:11.569Z,3.60
2019-01-19T05:49:45.299Z,3.70
2019-01-19T05:52:19.792Z,4.40
2019-01-19T05:54:53.557Z,3.80
2019-01-19T05:57:27.241Z,2.90
2019-01-19T06:00:00.851Z,3.30
2019-01-19T06:02:35.360Z,4.00
2019-01-19T06:05:09.074Z,3.67
2019-01-19T06:07:43.709Z,3.50
2019-01-19T06:10:17.407Z,3.07
2019-01-19T06:12:51.117Z,3.87
2019-01-19T06:15:25.008Z,3.77
2019-01-19T06:17:58.825Z,3.57
2019-01-19T06:20:33.371Z,3.43
2019-01-19T06:23:07.024Z,3.57
2019-01-19T06:25:40.756Z,3.67
2019-01-19T06:28:14.586Z,3.70
2019-01-19T06:30:48.322Z,3.27
2019-01-19T06:33:22.149Z,3.67
2019-01-19T06:35:56.647Z,3.60
2019-01-19T06:38:30.662Z,3.40
2019-01-19T06:41:05.386Z,3.90
2019-01-19T06:43:39.230Z,3.63
2019-01-19T06:46:12.985Z,4.07
2019-01-19T06:48:47.733Z,4.20
2019-01-19T06:51:21.387Z,3.50
2019-01-19T06:54:01.576Z,4.50
2019-01-19T06:56:29.445Z,4.97
2019-01-19T06:59:04.164Z,5.33
2019-01-19T07:01:37.866Z,5.40
2019-01-19T07:04:11.908Z,4.67
2019-01-19T07:06:46.436Z,3.80
2019-01-19T07:09:20.144Z,5.63
2019-01-19T07:11:54.039Z,4.83
2019-01-19T07:14:27.768Z,4.20
2019-01-19T07:17:01.539Z,4.83
2019-01-19T07:19:35.530Z,4.13
2019-01-19T07:22:09.452Z,3.50
2019-01-19T07:24:43.991Z,4.20
2019-01-19T07:27:17.910Z,4.53
2019-01-19T07:29:51.846Z,4.87
2019-01-19T07:32:25.799Z,3.83
2019-01-19T07:34:59.671Z,3.73
2019-01-19T07:37:33.303Z,4.30
2019-01-19T07:40:10.601Z,3.97
2019-01-19T07:42:44.436Z,4.63
2019-01-19T07:45:19.303Z,3.87
2019-01-19T07:47:53.129Z,3.80
2019-01-19T07:50:27.575Z,4.33
2019-01-19T07:53:01.512Z,4.63
2019-01-19T07:55:35.727Z,5.37
2019-01-19T08:23:08.542Z,5.67
2019-01-19T08:33:16.982Z,5.03
2019-01-19T08:35:50.710Z,5.47
2019-01-19T08:38:24.474Z,5.77
2019-01-19T08:40:58.957Z,6.03
2019-01-19T08:43:32.680Z,6.53
2019-01-19T08:46:06.398Z,7.17
2019-01-19T08:48:40.332Z,6.83
2019-01-19T08:51:14.305Z,6.43
2019-01-19T08:53:48.358Z,6.23
2019-01-19T08:56:22.952Z,5.73
2019-01-19T08:58:56.824Z,6.80
2019-01-19T09:01:30.585Z,5.90
2019-01-19T09:04:04.481Z,7.00
2019-01-19T09:06:38.994Z,6.10
2019-01-19T09:09:12.721Z,5.83
2019-01-19T09:11:46.477Z,7.23
2019-01-19T09:14:20.324Z,5.50
2019-01-19T09:16:54.953Z,5.23
2019-01-19T09:19:29.459Z,5.23
2019-01-19T09:22:03.219Z,5.80
2019-01-19T09:24:37.874Z,4.93
2019-01-19T09:27:12.519Z,5.13
2019-01-19T09:29:47.149Z,5.60
2019-01-19T09:32:20.861Z,5.10
2019-01-19T09:34:54.574Z,4.80
2019-01-19T09:37:28.288Z,4.83
2019-01-19T09:40:02.061Z,4.63
2019-01-19T09:42:35.737Z,4.23
2019-01-19T09:45:09.578Z,4.40
2019-01-19T09:47:43.242Z,4.17
2019-01-19T09:50:17.122Z,4.07
2019-01-19T09:52:50.758Z,3.93
2019-01-19T09:55:24.480Z,3.73
2019-01-19T09:57:58.201Z,4.77
2019-01-19T10:00:36.645Z,3.83
2019-01-19T10:03:06.015Z,4.57
2019-01-19T10:05:40.904Z,4.80
2019-01-19T10:08:16.381Z,5.10
2019-01-19T10:10:50.124Z,4.50
2019-01-19T10:13:23.898Z,4.03
2019-01-19T10:15:57.598Z,4.47
2019-01-19T10:18:31.393Z,4.20
2019-01-19T10:21:05.121Z,4.93
2019-01-19T10:23:38.836Z,4.23
2019-01-19T10:26:12.488Z,5.17
2019-01-19T10:28:47.061Z,4.47
2019-01-19T10:31:20.873Z,4.27
2019-01-19T10:33:54.702Z,3.93
2019-01-19T10:36:28.491Z,4.33
2019-01-19T10:39:02.403Z,3.93
2019-01-19T10:41:40.977Z,4.30
2019-01-19T10:44:11.533Z,4.40
2019-01-19T10:46:46.032Z,4.47
2019-01-19T10:49:19.683Z,4.50
2019-01-19T10:51:59.330Z,4.10
2019-01-19T10:54:27.303Z,5.07
2019-01-19T10:57:01.890Z,4.50
2019-01-19T10:59:35.628Z,4.03
2019-01-19T11:02:10.126Z,4.67
2019-01-19T11:04:44.825Z,4.17
2019-01-19T11:07:18.723Z,4.73
2019-01-19T11:09:52.548Z,4.53
2019-01-19T11:12:27.080Z,4.70
2019-01-19T11:15:00.808Z,3.57
2019-01-19T11:17:34.560Z,4.47
2019-01-19T11:20:09.892Z,5.53
2019-01-19T11:22:43.754Z,4.97
2019-01-19T11:25:18.361Z,4.73
2019-01-19T11:27:52.106Z,4.87
2019-01-19T11:30:26.568Z,4.13
2019-01-19T11:33:00.392Z,4.50
2019-01-19T11:35:34.034Z,4.47
2019-01-19T11:38:11.873Z,4.33
2019-01-19T11:40:41.266Z,4.10
2019-01-19T11:43:14.899Z,4.43
2019-01-19T11:45:48.502Z,4.97
2019-01-19T11:48:22.235Z,7.07
2019-01-19T11:50:55.977Z,4.60
2019-01-19T11:53:29.896Z,3.90
2019-01-19T11:56:03.745Z,3.33
2019-01-19T11:58:37.584Z,3.60
2019-01-19T12:01:11.413Z,3.93
2019-01-19T12:03:45.137Z,3.70
2019-01-19T12:06:18.995Z,4.63
2019-01-19T12:08:52.801Z,4.40
2019-01-19T12:11:26.510Z,4.77
2019-01-19T12:14:01.003Z,3.70
2019-01-19T12:16:34.695Z,4.23
2019-01-19T12:19:09.335Z,3.90
2019-01-19T12:21:43.869Z,3.93
2019-01-19T12:24:17.656Z,7.87
2019-01-19T12:26:51.321Z,4.07
2019-01-19T12:29:25.055Z,4.00
2019-01-19T12:31:58.868Z,3.77
2019-01-19T12:34:32.842Z,3.90
2019-01-19T12:37:06.536Z,3.93
2019-01-19T12:39:40.171Z,4.20
2019-01-19T12:42:13.857Z,3.60
2019-01-19T12:44:47.590Z,3.13
2019-01-19T12:47:21.254Z,4.23
2019-01-19T12:49:54.905Z,3.67
2019-01-19T12:52:28.613Z,3.67
2019-01-19T12:55:03.108Z,3.77
2019-01-19T12:57:36.867Z,3.63
2019-01-19T13:00:17.593Z,4.20
2019-01-19T13:02:51.211Z,3.53
2019-01-19T13:05:31.152Z,4.20
2019-01-19T13:08:05.806Z,3.30
2019-01-19T13:10:40.369Z,3.60
2019-01-19T13:13:14.168Z,3.30
2019-01-19T13:16:24.337Z,3.63
2019-01-19T13:19:01.754Z,3.60
2019-01-19T13:24:51.057Z,3.97
2019-01-19T13:27:30.518Z,3.30
2019-01-19T13:33:11.916Z,4.00
2019-01-19T13:36:04.946Z,3.13
2019-01-19T13:41:49.852Z,3.87
2019-01-19T13:44:37.840Z,3.13
2019-01-19T13:47:35.019Z,3.57
2019-01-19T13:50:16.136Z,2.80
2019-01-19T13:56:14.039Z,4.40
2019-01-19T14:02:33.696Z,4.12
2019-01-19T14:05:25.818Z,2.70
2019-01-19T14:11:24.933Z,3.60
2019-01-19T14:14:11.910Z,2.73
2019-01-19T14:17:13.240Z,3.00
2019-01-19T14:19:53.490Z,3.23
2019-01-19T14:25:39.945Z,3.35
2019-01-19T14:28:25.225Z,2.70
2019-01-19T14:31:15.281Z,2.67
2019-01-19T14:34:01.593Z,2.60
2019-01-19T14:36:38.029Z,2.80
2019-01-19T14:39:21.340Z,2.23
2019-01-19T14:42:06.347Z,3.13
2019-01-19T14:48:08.933Z,3.17
2019-01-19T14:53:55.106Z,3.87
2019-01-19T14:59:38.186Z,3.28
2019-01-19T15:02:32.753Z,2.77
2019-01-19T15:05:15.012Z,2.07
2019-01-19T15:07:52.138Z,2.53
2019-01-19T15:10:34.196Z,2.20
2019-01-19T15:16:37.516Z,3.37
2019-01-19T15:19:23.852Z,3.20
2019-01-19T15:22:06.567Z,2.80
2019-01-19T15:24:58.736Z,2.67
2019-01-19T15:28:00.621Z,2.57
2019-01-19T15:30:53.686Z,2.53
2019-01-19T15:33:38.180Z,3.00
2019-01-19T15:39:36.519Z,2.63
2019-01-19T15:42:15.969Z,2.50
2019-01-19T15:48:03.296Z,3.72
2019-01-19T15:50:52.603Z,3.20
2019-01-19T15:53:31.682Z,3.27
2019-01-19T15:56:13.638Z,3.40
2019-01-19T15:59:04.843Z,2.80
2019-01-19T16:05:42.280Z,4.37
2019-01-19T16:11:41.352Z,6.18
2019-01-19T16:14:36.395Z,4.50
2019-01-19T16:17:23.491Z,4.23
2019-01-19T16:20:11.914Z,4.20
2019-01-19T16:22:52.012Z,4.37
2019-01-19T16:25:31.395Z,4.10
2019-01-19T16:31:17.393Z,5.45
2019-01-19T16:37:11.417Z,6.20
2019-01-19T16:40:13.633Z,4.47
2019-01-19T16:43:06.645Z,4.30
2019-01-19T16:45:52.871Z,4.10
2019-01-19T16:48:36.164Z,4.23
2019-01-19T16:51:31.519Z,3.97
2019-01-19T16:57:19.000Z,5.40
2019-01-19T17:03:04.154Z,5.22
2019-01-19T17:05:40.290Z,3.53
2019-01-19T17:08:25.600Z,2.90
2019-01-19T17:14:17.088Z,4.85
2019-01-19T17:17:02.812Z,3.70
2019-01-19T17:29:18.980Z,4.53
2019-01-19T17:32:00.088Z,3.97
2019-01-19T17:34:49.162Z,3.40
2019-01-19T17:37:25.450Z,3.53
2019-01-19T17:43:41.492Z,4.93
2019-01-19T17:58:17.412Z,4.93
2019-01-19T18:04:11.303Z,5.03
2019-01-19T18:07:01.213Z,3.63
2019-01-19T18:09:47.500Z,3.40
2019-01-19T18:12:23.278Z,3.70
2019-01-19T18:18:28.540Z,5.60
2019-01-19T18:21:05.949Z,5.00
2019-01-19T18:26:50.001Z,7.68
2019-01-19T18:29:30.936Z,5.60
2019-01-19T18:32:06.464Z,5.00
2019-01-19T18:34:50.517Z,4.93
2019-01-19T18:37:31.503Z,4.53
2019-01-19T18:40:32.544Z,4.20
2019-01-19T18:46:04.282Z,7.30
2019-01-19T18:48:50.411Z,5.30
2019-01-19T18:51:31.941Z,4.60
2019-01-19T18:54:29.657Z,4.73
2019-01-19T19:03:37.796Z,8.30
2019-01-19T19:06:16.324Z,6.03
2019-01-19T19:09:12.185Z,5.67
2019-01-19T19:11:54.345Z,6.63
2019-01-19T19:14:30.885Z,7.07
2019-01-19T19:17:22.856Z,6.00
2019-01-19T19:20:01.789Z,5.50
2019-01-19T19:22:36.168Z,5.17
2019-01-19T19:25:15.496Z,5.83
2019-01-19T19:31:18.729Z,8.85
2019-01-19T19:33:54.170Z,6.57
2019-01-19T19:36:51.005Z,6.43
2019-01-19T19:39:38.456Z,6.83
2019-01-19T19:42:19.601Z,6.93
2019-01-19T19:48:16.602Z,13.18
2019-01-19T19:51:15.558Z,9.90
2019-01-19T19:53:50.085Z,8.03
2019-01-19T19:56:23.879Z,8.57
2019-01-19T19:58:57.665Z,7.73
2019-01-19T20:01:31.417Z,8.03
2019-01-19T20:04:05.928Z,7.10
2019-01-19T20:06:39.648Z,6.97
2019-01-19T20:09:13.366Z,6.80
2019-01-19T20:11:47.022Z,7.10
2019-01-19T20:14:20.925Z,7.67
2019-01-19T20:16:54.517Z,8.27
2019-01-19T20:19:28.331Z,8.57
2019-01-19T20:22:02.012Z,8.20
2019-01-19T20:24:36.563Z,8.80
2019-01-19T20:27:10.287Z,9.47
2019-01-19T20:29:44.798Z,7.93
2019-01-19T20:32:19.408Z,8.23
2019-01-19T20:34:53.215Z,6.83
2019-01-19T20:37:27.064Z,7.30
2019-01-19T20:40:01.801Z,8.07
2019-01-19T20:42:35.537Z,7.93
2019-01-19T20:45:10.951Z,7.57
2019-01-19T20:47:44.806Z,7.33
2019-01-19T20:50:18.484Z,6.70
2019-01-19T20:52:52.850Z,5.00
2019-01-19T20:55:26.670Z,5.93
2019-01-19T20:58:00.302Z,6.23
2019-01-19T21:00:34.084Z,6.73
2019-01-19T21:03:07.913Z,5.40
2019-01-19T21:05:41.529Z,4.47
2019-01-19T21:08:15.265Z,4.50
2019-01-19T21:10:48.951Z,4.73
2019-01-19T21:13:22.580Z,3.90
2019-01-19T21:15:56.419Z,3.93
2019-01-19T21:18:30.293Z,5.20
2019-01-19T21:21:04.133Z,4.17
2019-01-19T21:23:37.881Z,4.77
2019-01-19T21:26:11.641Z,4.83
2019-01-19T21:28:45.416Z,4.87
2019-01-19T21:31:19.081Z,5.47
2019-01-19T21:33:52.913Z,5.60
2019-01-19T21:36:26.690Z,5.00
2019-01-19T21:39:00.587Z,5.13
2019-01-19T21:41:35.031Z,6.60
2019-01-19T21:44:09.521Z,6.13
2019-01-19T21:46:43.157Z,6.00
2019-01-19T21:49:17.650Z,5.87
2019-01-19T21:51:52.102Z,5.97
2019-01-19T21:54:25.802Z,5.90
2019-01-19T21:56:59.537Z,5.80
2019-01-19T21:59:34.102Z,5.30
2019-01-19T22:02:08.540Z,5.47
2019-01-19T22:04:42.193Z,6.80
2019-01-19T22:07:15.865Z,8.00
2019-01-19T22:09:49.565Z,7.23
2019-01-19T22:12:23.262Z,6.73
2019-01-19T22:14:56.957Z,5.77
2019-01-19T22:17:31.406Z,6.07
2019-01-19T22:20:05.122Z,6.23
2019-01-19T22:22:38.809Z,6.67
2019-01-19T22:25:12.464Z,5.97
2019-01-19T22:27:46.252Z,6.60
2019-01-19T22:30:20.028Z,6.23
2019-01-19T22:32:53.879Z,6.03
2019-01-19T22:36:07.489Z,6.33
2019-01-19T22:38:41.078Z,6.20
2019-01-19T22:41:14.726Z,8.07
2019-01-19T22:43:49.208Z,10.00
2019-01-19T22:46:22.909Z,8.40
2019-01-19T22:48:57.534Z,9.13
2019-01-19T22:51:31.248Z,9.37
2019-01-19T22:54:05.136Z,9.27
2019-01-19T22:56:39.017Z,9.50
2019-01-19T22:59:13.481Z,9.50
2019-01-19T23:01:47.169Z,9.07
2019-01-19T23:04:20.930Z,8.60
2019-01-19T23:06:56.053Z,8.77
2019-01-19T23:09:29.752Z,8.57
2019-01-19T23:12:03.612Z,7.70
2019-01-19T23:14:37.307Z,8.77
2019-01-19T23:17:11.871Z,8.73
2019-01-19T23:19:45.782Z,7.93
2019-01-19T23:22:19.591Z,8.67
2019-01-19T23:24:54.253Z,7.63
2019-01-19T23:27:28.158Z,7.40
2019-01-19T23:30:02.065Z,6.20
2019-01-19T23:32:35.840Z,7.63
2019-01-19T23:35:10.556Z,7.10
2019-01-19T23:37:44.249Z,6.60
2019-01-19T23:40:17.985Z,7.10
2019-01-19T23:42:51.789Z,5.77
2019-01-19T23:45:25.480Z,6.70
2019-01-19T23:47:59.297Z,7.30
2019-01-19T23:50:33.797Z,8.30
2019-01-19T23:53:08.296Z,7.60
2019-01-19T23:55:46.213Z,7.43
2019-01-19T23:58:20.841Z,7.70
